Aviation Digital Data Service (ADDS)

Output produced by METARs form (0750 UTC 17 October 2017)
found at http://www.aviationweather.gov/adds/metars/
 
KIDI 170735Z AUTO 00000KT 10SM CLR 01/01 A3032 RMK A01
KIDI 170715Z AUTO 00000KT 10SM CLR 02/01 A3033 RMK A01
KIDI 170655Z AUTO 00000KT 10SM CLR 01/01 A3032 RMK A01
KIDI 170635Z AUTO 00000KT 10SM CLR 02/01 A3032 RMK A01
KIDI 170615Z AUTO 00000KT 10SM CLR 02/02 A3031 RMK A01
KIDI 170555Z AUTO 00000KT 10SM CLR 02/02 A3031 RMK A01
KIDI 170535Z AUTO 00000KT 10SM CLR 02/02 A3031 RMK A01
KIDI 170515Z AUTO 00000KT 10SM CLR 02/02 A3031 RMK A01
KIDI 170455Z AUTO 00000KT 10SM CLR 02/02 A3030 RMK A01
KIDI 170435Z AUTO 00000KT 10SM CLR 02/02 A3031 RMK A01
KIDI 170415Z AUTO 00000KT 10SM CLR 03/02 A3031 RMK A01
KIDI 170355Z AUTO 00000KT 10SM CLR 03/02 A3031 RMK A01
KIDI 170335Z AUTO 00000KT 10SM CLR 03/02 A3031 RMK A01
KIDI 170315Z AUTO 00000KT 10SM CLR 03/02 A3032 RMK A01
KIDI 170255Z AUTO 00000KT 10SM CLR 04/02 A3032 RMK A01
KIDI 170235Z AUTO 00000KT 10SM CLR 04/02 A3032 RMK A01
KIDI 170215Z AUTO 00000KT 10SM CLR 04/03 A3031 RMK A01
KIDI 170155Z AUTO 00000KT 10SM CLR 05/03 A3031 RMK A01
KIDI 170135Z AUTO 00000KT 10SM CLR 05/03 A3030 RMK A01
KIDI 170115Z AUTO 00000KT 10SM CLR 06/03 A3030 RMK A01
KIDI 170055Z AUTO 00000KT 10SM CLR 06/03 A3029 RMK A01
KIDI 170035Z AUTO 00000KT 10SM CLR 07/03 A3028 RMK A01
KIDI 170015Z AUTO 00000KT 10SM CLR 08/02 A3028 RMK A01
KIDI 162355Z AUTO 00000KT 10SM CLR 07/03 A3027 RMK A01
KIDI 162335Z AUTO 00000KT 10SM CLR 08/02 A3027 RMK A01
KIDI 162315Z AUTO 00000KT 10SM CLR 09/03 A3026 RMK A01
KIDI 162255Z AUTO 35003KT 10SM CLR 09/03 A3026 RMK A01
KIDI 162235Z AUTO 33003KT 10SM CLR 09/03 A3025 RMK A01
KIDI 162215Z AUTO 35007KT 320V020 10SM SCT048 10/02 A3025 RMK A01
KIDI 162155Z AUTO 35008KT 10SM BKN046 11/03 A3024 RMK A01
KIDI 162135Z AUTO 35005G13KT 10SM CLR 11/02 A3024 RMK A01
KIDI 162115Z AUTO 35007G15KT 320V020 10SM CLR 12/03 A3023 RMK A01
KIDI 162055Z AUTO 35010G15KT 10SM CLR 12/03 A3023 RMK A01
KIDI 162035Z AUTO 35008G13KT 320V020 10SM CLR 12/05 A3023 RMK A01
KIDI 162015Z AUTO 34012KT 10SM FEW032 FEW039 SCT050 11/04 A3023 RMK A01
KIDI 161955Z AUTO 36008G16KT 10SM FEW038 FEW055 SCT070 12/04 A3023 RMK A01
KIDI 161935Z AUTO 36008G16KT 10SM SCT055 BKN065 12/04 A3022 RMK A01
KIDI 161915Z AUTO 31009G18KT 10SM BKN060 OVC070 12/04 A3022 RMK A01
KIDI 161855Z AUTO 33008G16KT 10SM SCT039 BKN060 OVC075 13/02 A3021 RMK A01
KIDI 161835Z AUTO 35009KT 10SM BKN041 OVC049 12/04 A3022 RMK A01
KIDI 161815Z AUTO 32010KT 10SM SCT043 BKN050 OVC060 12/03 A3021 RMK A01
KIDI 161755Z AUTO 33008G19KT 10SM FEW045 OVC060 12/02 A3021 RMK A01
KIDI 161735Z AUTO 36006KT 10SM SCT046 OVC055 12/03 A3022 RMK A01
KIDI 161715Z AUTO 33008G15KT 300V360 10SM SCT043 BKN049 BKN055 12/03 A3022 RMK A01
KIDI 161655Z AUTO 35009G18KT 10SM BKN042 BKN050 11/02 A3023 RMK A01
KIDI 161635Z AUTO 34010G19KT 10SM SCT042 BKN049 12/02 A3023 RMK A01
KIDI 161615Z AUTO 34008G17KT 320V030 10SM SCT040 BKN047 11/03 A3023 RMK A01
KIDI 161555Z AUTO 01007G14KT 10SM BKN037 BKN043 12/04 A3023 RMK A01
KIDI 161535Z AUTO 35008G14KT 310V010 10SM BKN035 BKN041 11/04 A3023 RMK A01
KIDI 161515Z AUTO 33015G21KT 10SM SCT030 SCT035 11/04 A3022 RMK A01
KIDI 161455Z AUTO 34009KT 10SM BKN030 OVC036 10/04 A3022 RMK A01
KIDI 161435Z AUTO 34013KT 10SM BKN031 BKN036 10/04 A3022 RMK A01
KIDI 161415Z AUTO 34010G18KT 310V020 10SM FEW028 SCT033 10/04 A3022 RMK A01
KIDI 161355Z AUTO 34010KT 10SM CLR 10/04 A3021 RMK A01
KIDI 161335Z AUTO 35006G12KT 10SM CLR 09/05 A3020 RMK A01
KIDI 161315Z AUTO VRB04KT 10SM CLR 09/05 A3020 RMK A01
KIDI 161255Z AUTO 33006KT 10SM CLR 09/04 A3019 RMK A01
KIDI 161235Z AUTO 33004KT 10SM CLR 08/04 A3018 RMK A01
KIDI 161215Z AUTO 00000KT 10SM CLR 07/04 A3018 RMK A01
KIDI 161155Z AUTO VRB03KT 10SM FEW032 08/04 A3017 RMK A01
KIDI 161135Z AUTO 00000KT 10SM BKN032 08/04 A3016 RMK A01
KIDI 161115Z AUTO VRB04G13KT 10SM OVC034 08/04 A3016 RMK A01
KIDI 161055Z AUTO 34008KT 320V020 10SM OVC034 08/04 A3015 RMK A01
KIDI 161035Z AUTO 35010G16KT 10SM OVC035 08/05 A3014 RMK A01
KIDI 161015Z AUTO 34007KT 310V010 10SM FEW019 BKN036 BKN042 08/06 A3013 RMK A01
KIDI 160955Z AUTO VRB06KT 10SM BKN036 BKN042 08/06 A3012 RMK A01
KIDI 160935Z AUTO 33007KT 300V360 10SM SCT018 BKN038 OVC049 09/06 A3012 RMK A01
KIDI 160915Z AUTO 34009KT 10SM BKN018 BKN027 OVC049 09/07 A3011 RMK A01
KIDI 160855Z AUTO 34007KT 10SM FEW020 OVC049 10/07 A3010 RMK A01
KIDI 160835Z AUTO 33008G14KT 10SM FEW027 OVC050 10/07 A3009 RMK A01
KIDI 160815Z AUTO 33008KT 10SM FEW017 BKN033 OVC049 10/07 A3009 RMK A01
KIDI 160755Z AUTO 33007KT 10SM FEW016 OVC030 10/08 A3008 RMK A01